25°C Temp
16°C Dewpoint
% Humidity
Temperature
21 KM/H
13 MPH
11 KTS
100°
Due East

Wind Speed
Clear
Conditions
Pressure 1018.92 (hPa) - 30.09 (in)
Visibility 6.2 (mi) - 10.0 (km)

Current Conditions
EFHK
Location 67(km)
Metar :EFHK 290820Z 10011KT CAVOK 25/16 Q1019 NOSIG
Wed 29th June 11:20 am

Airport
  Metar Aviation API Data Provided by https://www.checkwx.com/ PHP scripts by weather34.com ©2022